createdAt,value
2017-11-09T00:00:51.189Z,94.80
2017-11-09T00:03:20.991Z,94.80
2017-11-09T00:06:12.467Z,95.00
2017-11-09T00:08:41.307Z,94.90
2017-11-09T00:11:11.529Z,94.80
2017-11-09T00:13:41.560Z,94.70
2017-11-09T00:16:11.163Z,94.70
2017-11-09T00:18:40.788Z,94.70
2017-11-09T00:21:09.684Z,94.70
2017-11-09T00:23:38.540Z,94.80
2017-11-09T00:26:08.381Z,94.80
2017-11-09T00:28:38.000Z,94.90
2017-11-09T00:31:06.853Z,94.90
2017-11-09T00:33:35.721Z,95.00
2017-11-09T00:36:04.644Z,95.10
2017-11-09T00:38:34.277Z,95.00
2017-11-09T00:41:03.136Z,95.00
2017-11-09T00:43:32.763Z,95.20
2017-11-09T00:46:02.417Z,94.90
2017-11-09T00:48:31.283Z,94.90
2017-11-09T00:51:00.140Z,95.00
2017-11-09T00:53:29.020Z,95.10
2017-11-09T00:55:59.663Z,95.10
2017-11-09T00:58:28.748Z,95.10
2017-11-09T01:00:56.967Z,95.00
2017-11-09T01:03:26.409Z,95.20
2017-11-09T01:05:55.264Z,95.30
2017-11-09T01:08:24.908Z,95.40
2017-11-09T01:10:53.873Z,95.50
2017-11-09T01:13:22.724Z,95.40
2017-11-09T01:15:52.350Z,95.70
2017-11-09T01:18:21.971Z,95.60
2017-11-09T01:20:50.829Z,95.60
2017-11-09T01:23:20.448Z,95.60
2017-11-09T01:25:50.091Z,95.50
2017-11-09T01:28:18.943Z,95.50
2017-11-09T01:30:48.569Z,95.50
2017-11-09T01:33:18.996Z,95.50
2017-11-09T01:35:48.611Z,95.60
2017-11-09T01:38:17.474Z,95.60
2017-11-09T01:40:47.027Z,95.50
2017-11-09T01:43:15.927Z,95.50
2017-11-09T01:45:44.780Z,95.50
2017-11-09T01:48:13.670Z,95.50
2017-11-09T01:50:43.283Z,95.50
2017-11-09T01:53:12.899Z,95.40
2017-11-09T01:55:42.626Z,95.60
2017-11-09T01:58:11.469Z,95.60
2017-11-09T02:00:40.316Z,95.60
2017-11-09T02:03:09.155Z,95.50
2017-11-09T02:05:38.007Z,95.50
2017-11-09T02:08:06.865Z,95.50
2017-11-09T02:10:35.767Z,95.50
2017-11-09T02:13:04.624Z,95.50
2017-11-09T02:15:33.976Z,95.40
2017-11-09T02:18:02.831Z,95.50
2017-11-09T02:20:32.128Z,95.40
2017-11-09T02:23:01.752Z,95.30
2017-11-09T02:25:31.787Z,95.30
2017-11-09T02:27:59.995Z,95.30
2017-11-09T02:30:28.540Z,95.30
2017-11-09T02:32:57.329Z,95.40
2017-11-09T02:35:26.203Z,95.40
2017-11-09T02:37:55.526Z,95.40
2017-11-09T02:40:24.410Z,95.40
2017-11-09T02:42:53.269Z,95.30
2017-11-09T02:45:22.136Z,95.30
2017-11-09T02:47:50.995Z,95.30
2017-11-09T02:50:19.871Z,95.50
2017-11-09T02:52:48.739Z,95.60
2017-11-09T02:55:17.279Z,96.00
2017-11-09T02:57:45.507Z,96.20
2017-11-09T03:00:14.836Z,96.50
2017-11-09T03:02:43.730Z,96.50
2017-11-09T03:05:13.149Z,96.80
2017-11-09T03:07:41.997Z,96.90
2017-11-09T03:10:11.309Z,96.70
2017-11-09T03:12:40.375Z,96.60
2017-11-09T03:15:09.776Z,96.50
2017-11-09T03:17:38.631Z,96.30
2017-11-09T03:20:07.477Z,96.20
2017-11-09T03:22:37.098Z,96.20
2017-11-09T03:25:06.719Z,96.60
2017-11-09T03:27:35.468Z,96.60
2017-11-09T03:30:07.072Z,96.90
2017-11-09T03:32:35.943Z,97.00
2017-11-09T03:35:05.564Z,97.00
2017-11-09T03:37:34.434Z,97.00
2017-11-09T03:40:04.587Z,97.30
2017-11-09T03:42:33.439Z,97.30
2017-11-09T03:45:03.071Z,97.60
2017-11-09T03:47:31.947Z,97.50
2017-11-09T03:50:02.051Z,97.60
2017-11-09T03:52:30.897Z,97.60
2017-11-09T03:55:00.717Z,97.50
2017-11-09T03:57:30.949Z,97.70
2017-11-09T03:59:59.854Z,97.70
2017-11-09T04:02:28.701Z,97.90
2017-11-09T04:04:57.608Z,98.00
2017-11-09T04:07:26.470Z,98.00
2017-11-09T04:09:55.348Z,98.10
2017-11-09T04:12:24.979Z,98.50
2017-11-09T04:14:53.842Z,98.50
2017-11-09T04:17:23.475Z,98.30
2017-11-09T04:19:53.866Z,98.30
2017-11-09T04:22:22.709Z,98.10
2017-11-09T04:24:52.341Z,98.20
2017-11-09T04:27:24.608Z,98.30
2017-11-09T04:29:53.475Z,98.50
2017-11-09T04:32:22.345Z,98.40
2017-11-09T04:34:52.887Z,98.80
2017-11-09T04:37:21.740Z,98.80
2017-11-09T04:39:52.292Z,98.90
2017-11-09T04:42:21.903Z,99.10
2017-11-09T04:44:52.634Z,99.10
2017-11-09T04:47:22.265Z,99.10
2017-11-09T04:49:51.128Z,99.10
2017-11-09T04:52:20.742Z,99.10
2017-11-09T04:54:50.352Z,99.20
2017-11-09T04:57:19.225Z,99.20
2017-11-09T04:59:47.756Z,99.10
2017-11-09T05:02:16.620Z,99.50
2017-11-09T05:04:48.309Z,99.20
2017-11-09T05:07:17.163Z,99.20
2017-11-09T05:09:46.791Z,99.20
2017-11-09T05:12:15.643Z,99.50
2017-11-09T05:14:44.341Z,99.20
2017-11-09T05:17:13.420Z,99.40
2017-11-09T05:19:42.271Z,99.50
2017-11-09T05:22:10.954Z,99.40
2017-11-09T05:24:39.812Z,99.40
2017-11-09T05:27:09.477Z,99.50
2017-11-09T05:29:38.327Z,99.50
2017-11-09T05:32:07.950Z,99.50
2017-11-09T05:34:36.800Z,99.50
2017-11-09T05:37:05.666Z,99.60
2017-11-09T05:39:34.531Z,99.60
2017-11-09T05:42:03.400Z,99.70
2017-11-09T05:44:32.263Z,99.80
2017-11-09T05:47:02.018Z,99.10
2017-11-09T05:49:30.890Z,99.10
2017-11-09T05:52:00.511Z,99.20
2017-11-09T05:54:30.047Z,99.20
2017-11-09T05:56:58.955Z,99.30
2017-11-09T05:59:27.493Z,99.60
2017-11-09T06:01:56.359Z,99.60
2017-11-09T06:04:25.978Z,99.10
2017-11-09T06:06:55.587Z,99.00
2017-11-09T06:09:25.214Z,99.20
2017-11-09T06:11:54.076Z,99.10
2017-11-09T06:14:23.788Z,99.70
2017-11-09T06:16:52.711Z,99.40
2017-11-09T06:19:21.586Z,99.50
2017-11-09T06:21:51.204Z,99.40
2017-11-09T06:24:20.092Z,99.40
2017-11-09T06:26:49.762Z,99.40
2017-11-09T06:29:18.663Z,99.10
2017-11-09T06:31:48.379Z,99.10
2017-11-09T06:34:18.108Z,99.00
2017-11-09T06:36:46.963Z,99.00
2017-11-09T06:39:15.935Z,99.10
2017-11-09T06:41:45.732Z,99.20
2017-11-09T06:44:14.591Z,99.10
2017-11-09T06:46:43.883Z,98.80
2017-11-09T06:49:12.736Z,98.80
2017-11-09T06:51:41.591Z,99.40
2017-11-09T06:54:10.458Z,99.30
2017-11-09T06:56:40.084Z,99.50
2017-11-09T06:59:09.705Z,99.30
2017-11-09T07:01:38.568Z,99.20
2017-11-09T07:04:09.953Z,99.00
2017-11-09T07:06:38.808Z,99.00
2017-11-09T07:09:07.672Z,99.00
2017-11-09T07:11:36.527Z,99.00
2017-11-09T07:14:05.402Z,98.90
2017-11-09T07:16:34.265Z,98.70
2017-11-09T07:19:04.224Z,98.70
2017-11-09T07:21:33.109Z,98.70
2017-11-09T07:24:01.973Z,98.90
2017-11-09T07:26:31.607Z,99.00
2017-11-09T07:29:00.472Z,98.90
2017-11-09T07:31:30.078Z,99.40
2017-11-09T07:33:59.694Z,99.30
2017-11-09T07:36:29.315Z,99.20
2017-11-09T07:38:58.171Z,99.10
2017-11-09T07:41:27.094Z,99.00
2017-11-09T07:43:56.713Z,98.50
2017-11-09T07:46:25.592Z,98.50
2017-11-09T07:48:55.248Z,98.60
2017-11-09T07:51:24.107Z,98.60
2017-11-09T07:53:52.976Z,98.50
2017-11-09T07:56:22.967Z,98.70
2017-11-09T07:58:51.886Z,98.70
2017-11-09T08:01:21.528Z,98.90
2017-11-09T08:03:50.368Z,98.90
2017-11-09T08:06:20.086Z,98.70
2017-11-09T08:08:48.958Z,99.00
2017-11-09T08:11:17.816Z,98.90
2017-11-09T08:13:47.160Z,99.30
2017-11-09T08:16:16.013Z,99.20
2017-11-09T08:18:44.884Z,99.10
2017-11-09T08:21:13.736Z,99.00
2017-11-09T08:23:42.604Z,98.80
2017-11-09T08:26:12.696Z,98.60
2017-11-09T08:28:46.016Z,98.50
2017-11-09T08:31:18.964Z,98.60
2017-11-09T08:33:49.582Z,98.50
2017-11-09T08:36:20.020Z,98.80
2017-11-09T08:38:49.658Z,98.60
2017-11-09T08:41:18.519Z,98.60
2017-11-09T08:43:48.144Z,98.70
2017-11-09T08:46:17.017Z,98.70
2017-11-09T08:48:46.675Z,98.60
2017-11-09T08:51:15.536Z,98.60
2017-11-09T08:53:44.385Z,98.90
2017-11-09T08:56:13.250Z,99.30
2017-11-09T08:58:42.881Z,99.50
2017-11-09T09:01:11.759Z,99.60
2017-11-09T09:03:40.610Z,99.30
2017-11-09T09:06:09.488Z,99.30
2017-11-09T09:08:38.344Z,99.30
2017-11-09T09:11:07.062Z,99.40
2017-11-09T09:13:35.936Z,99.50
2017-11-09T09:16:05.435Z,99.40
2017-11-09T09:18:34.132Z,99.40
2017-11-09T09:21:05.687Z,99.70
2017-11-09T09:23:35.140Z,99.70
2017-11-09T09:26:18.689Z,99.70
2017-11-09T09:29:02.256Z,99.90
2017-11-09T09:31:40.862Z,99.80
2017-11-09T09:34:12.139Z,99.70
2017-11-09T09:36:55.328Z,99.60
2017-11-09T09:39:29.036Z,99.80
2017-11-09T09:41:58.129Z,99.60
2017-11-09T09:44:26.817Z,99.40
2017-11-09T09:46:55.503Z,99.60
2017-11-09T09:49:24.188Z,99.50
2017-11-09T09:51:53.065Z,99.40
2017-11-09T09:54:21.793Z,99.40
2017-11-09T09:56:50.472Z,99.30
2017-11-09T09:59:19.323Z,99.30
2017-11-09T10:01:47.547Z,99.10
2017-11-09T10:04:16.230Z,99.40
2017-11-09T10:06:45.093Z,99.40
2017-11-09T10:09:13.956Z,99.50
2017-11-09T10:11:42.830Z,99.70
2017-11-09T10:14:11.685Z,99.70
2017-11-09T10:16:40.550Z,99.80
2017-11-09T10:19:09.429Z,99.60
2017-11-09T10:21:38.281Z,99.80
2017-11-09T10:24:07.912Z,99.70
2017-11-09T10:26:36.768Z,99.70
2017-11-09T10:29:05.628Z,99.90
2017-11-09T10:31:34.592Z,99.90
2017-11-09T10:34:03.461Z,99.90
2017-11-09T10:36:32.315Z,99.90
2017-11-09T10:39:01.186Z,99.90
2017-11-09T10:41:31.077Z,99.90
2017-11-09T10:43:59.932Z,99.90
2017-11-09T10:46:28.783Z,99.80
2017-11-09T10:48:57.468Z,99.70
2017-11-09T10:51:26.337Z,99.70
2017-11-09T10:53:55.199Z,99.80
2017-11-09T10:56:24.667Z,99.80
2017-11-09T10:58:53.541Z,99.80
2017-11-09T11:01:22.426Z,99.70
2017-11-09T11:03:51.335Z,99.70
2017-11-09T11:06:20.234Z,99.80
2017-11-09T11:08:49.122Z,99.90
2017-11-09T11:11:17.998Z,99.90
2017-11-09T11:13:46.856Z,99.60
2017-11-09T11:16:16.536Z,99.80
2017-11-09T11:18:45.396Z,99.80
2017-11-09T11:21:14.370Z,99.80
2017-11-09T11:23:43.219Z,99.70
2017-11-09T11:26:13.451Z,99.40
2017-11-09T11:28:42.316Z,99.20
2017-11-09T11:31:11.189Z,99.20
2017-11-09T11:33:39.721Z,99.20
2017-11-09T11:36:08.576Z,99.20
2017-11-09T11:38:37.465Z,99.20
2017-11-09T11:41:06.327Z,99.70
2017-11-09T11:43:35.183Z,99.90
2017-11-09T11:46:04.808Z,99.90
2017-11-09T11:48:34.431Z,99.90
2017-11-09T11:51:03.208Z,99.90
2017-11-09T11:53:32.064Z,99.90
2017-11-09T11:56:01.731Z,99.90
2017-11-09T11:58:30.593Z,99.90
2017-11-09T12:01:00.742Z,99.90
2017-11-09T12:03:29.863Z,99.90
2017-11-09T12:05:58.749Z,99.90
2017-11-09T12:08:27.620Z,99.80
2017-11-09T12:10:56.462Z,99.70
2017-11-09T12:13:26.100Z,99.70
2017-11-09T12:15:54.967Z,99.70
2017-11-09T12:18:23.817Z,99.90
2017-11-09T12:20:52.707Z,99.80
2017-11-09T12:23:21.566Z,99.90
2017-11-09T12:25:50.428Z,99.90
2017-11-09T12:28:19.283Z,99.90
2017-11-09T12:30:48.686Z,99.90
2017-11-09T12:33:17.542Z,99.90
2017-11-09T12:35:47.346Z,99.60
2017-11-09T12:38:17.712Z,99.20
2017-11-09T12:40:46.593Z,99.20
2017-11-09T12:43:15.456Z,98.90
2017-11-09T12:45:44.908Z,98.80
2017-11-09T12:48:13.596Z,98.80
2017-11-09T12:50:42.467Z,98.50
2017-11-09T12:53:11.328Z,98.20
2017-11-09T12:55:40.959Z,98.00
2017-11-09T12:58:09.821Z,98.00
2017-11-09T13:00:39.136Z,98.20
2017-11-09T13:03:08.020Z,98.20
2017-11-09T13:05:37.542Z,98.70
2017-11-09T13:08:06.427Z,98.70
2017-11-09T13:10:35.294Z,98.80
2017-11-09T13:13:05.069Z,98.70
2017-11-09T13:15:33.761Z,98.50
2017-11-09T13:18:02.633Z,98.10
2017-11-09T13:20:31.595Z,97.90
2017-11-09T13:23:01.224Z,98.60
2017-11-09T13:25:30.078Z,98.90
2017-11-09T13:27:58.946Z,98.90
2017-11-09T13:30:27.849Z,98.80
2017-11-09T13:32:59.700Z,98.80
2017-11-09T13:35:28.580Z,98.70
2017-11-09T13:37:57.440Z,98.90
2017-11-09T13:40:26.300Z,99.10
2017-11-09T13:43:04.511Z,99.00
2017-11-09T13:45:34.168Z,99.20
2017-11-09T13:48:03.032Z,99.10
2017-11-09T13:50:32.605Z,99.20
2017-11-09T13:53:01.478Z,99.30
2017-11-09T13:55:30.375Z,99.30
2017-11-09T13:57:59.260Z,99.20
2017-11-09T14:00:28.311Z,99.20
2017-11-09T14:02:57.394Z,99.30
2017-11-09T14:05:26.848Z,99.50
2017-11-09T14:07:56.488Z,99.50
2017-11-09T14:10:25.363Z,99.50
2017-11-09T14:12:54.232Z,99.20
2017-11-09T14:15:23.093Z,99.20
2017-11-09T14:17:52.715Z,99.10
2017-11-09T14:20:21.549Z,99.40
2017-11-09T14:22:50.406Z,98.80
2017-11-09T14:25:19.357Z,98.80
2017-11-09T14:27:48.939Z,99.10
2017-11-09T14:30:17.815Z,99.10
2017-11-09T14:32:46.672Z,99.10
2017-11-09T14:35:15.370Z,99.10
2017-11-09T14:37:44.218Z,99.10
2017-11-09T14:40:13.091Z,98.90
2017-11-09T14:42:41.962Z,99.20
2017-11-09T14:45:10.817Z,99.10
2017-11-09T14:47:39.873Z,99.30
2017-11-09T14:50:08.738Z,99.30
2017-11-09T14:52:37.611Z,99.30
2017-11-09T14:55:06.505Z,99.10
2017-11-09T14:57:35.369Z,99.00
2017-11-09T15:00:04.695Z,98.90
2017-11-09T15:02:33.555Z,98.90
2017-11-09T15:05:03.189Z,98.80
2017-11-09T15:07:32.917Z,98.80
2017-11-09T15:10:01.613Z,98.90
2017-11-09T15:12:30.469Z,98.80
2017-11-09T15:14:59.147Z,98.80
2017-11-09T15:17:28.016Z,98.80
2017-11-09T15:19:56.707Z,98.70
2017-11-09T15:22:25.406Z,98.80
2017-11-09T15:24:54.858Z,99.20
2017-11-09T15:27:23.704Z,99.10
2017-11-09T15:29:53.141Z,99.00
2017-11-09T15:32:35.535Z,99.00
2017-11-09T15:35:04.442Z,98.90
2017-11-09T15:37:33.298Z,98.90
2017-11-09T15:40:02.939Z,98.90
2017-11-09T15:42:31.799Z,98.80
2017-11-09T15:45:01.415Z,98.90
2017-11-09T15:47:31.043Z,98.90
2017-11-09T15:50:00.381Z,98.90
2017-11-09T15:52:29.337Z,98.70
2017-11-09T15:54:58.200Z,98.60
2017-11-09T15:57:27.836Z,98.70
2017-11-09T15:59:56.693Z,98.80
2017-11-09T16:02:26.347Z,98.60
2017-11-09T16:04:54.946Z,98.60
2017-11-09T16:07:23.810Z,98.40
2017-11-09T16:09:52.674Z,98.50
2017-11-09T16:12:21.527Z,98.50
2017-11-09T16:14:50.385Z,98.40
2017-11-09T16:17:19.247Z,98.30
2017-11-09T16:19:48.879Z,98.10
2017-11-09T16:22:17.749Z,98.10
2017-11-09T16:24:47.395Z,98.10
2017-11-09T16:27:16.249Z,98.00
2017-11-09T16:29:49.675Z,98.00
2017-11-09T16:32:19.397Z,98.00
2017-11-09T16:34:48.272Z,98.10
2017-11-09T16:37:17.121Z,98.20
2017-11-09T16:39:45.974Z,98.10
2017-11-09T16:42:14.823Z,97.80
2017-11-09T16:44:44.128Z,98.00
2017-11-09T16:47:13.742Z,98.10
2017-11-09T16:49:43.354Z,99.90
2017-11-09T16:52:12.204Z,99.90
2017-11-09T16:54:41.060Z,99.90
2017-11-09T16:57:09.944Z,97.40
2017-11-09T16:59:38.456Z,95.90
2017-11-09T17:02:07.316Z,97.60
2017-11-09T17:04:36.167Z,98.70
2017-11-09T17:07:05.009Z,99.40
2017-11-09T17:09:33.869Z,99.80
2017-11-09T17:12:03.486Z,99.80
2017-11-09T17:14:32.342Z,99.80
2017-11-09T17:17:01.179Z,99.90
2017-11-09T17:19:30.036Z,99.90
2017-11-09T17:21:58.876Z,99.90
2017-11-09T17:24:27.722Z,99.90
2017-11-09T17:26:57.339Z,99.60
2017-11-09T17:29:26.954Z,99.60
2017-11-09T17:31:55.818Z,99.60
2017-11-09T17:34:24.681Z,99.50
2017-11-09T17:36:53.193Z,99.50
2017-11-09T17:39:22.055Z,99.20
2017-11-09T17:41:56.334Z,99.20
2017-11-09T17:44:25.192Z,99.30
2017-11-09T17:46:54.144Z,99.10
2017-11-09T17:49:23.002Z,99.00
2017-11-09T17:51:52.907Z,98.90
2017-11-09T17:54:22.515Z,98.70
2017-11-09T17:56:52.124Z,98.70
2017-11-09T17:59:23.659Z,98.70
2017-11-09T18:01:53.523Z,98.70
2017-11-09T18:04:22.374Z,98.50
2017-11-09T18:06:51.223Z,98.60
2017-11-09T18:09:20.087Z,98.40
2017-11-09T18:11:48.941Z,98.30
2017-11-09T18:14:17.787Z,98.10
2017-11-09T18:16:46.640Z,97.90
2017-11-09T18:19:15.497Z,97.80
2017-11-09T18:21:44.361Z,97.80
2017-11-09T18:24:13.224Z,97.80
2017-11-09T18:26:45.203Z,97.80
2017-11-09T18:29:15.015Z,97.80
2017-11-09T18:31:43.869Z,97.90
2017-11-09T18:34:12.737Z,97.80
2017-11-09T18:36:42.188Z,98.10
2017-11-09T18:39:12.902Z,97.90
2017-11-09T18:41:42.848Z,97.70
2017-11-09T18:44:11.711Z,97.70
2017-11-09T18:46:40.578Z,97.60
2017-11-09T18:49:09.518Z,97.60
2017-11-09T18:51:39.084Z,97.50
2017-11-09T18:54:07.943Z,97.50
2017-11-09T18:56:37.667Z,97.50
2017-11-09T18:59:12.928Z,97.50
2017-11-09T19:01:43.298Z,97.30
2017-11-09T19:04:12.708Z,97.30
2017-11-09T19:06:41.275Z,97.40
2017-11-09T19:09:10.934Z,97.50
2017-11-09T19:11:39.503Z,97.50
2017-11-09T19:14:09.812Z,97.50
2017-11-09T19:16:39.396Z,97.50
2017-11-09T19:19:09.025Z,97.40
2017-11-09T19:21:38.480Z,97.40
2017-11-09T19:24:08.414Z,97.50
2017-11-09T19:26:38.868Z,97.60
2017-11-09T19:29:08.621Z,97.50
2017-11-09T19:31:38.313Z,97.50
2017-11-09T19:34:08.224Z,97.50
2017-11-09T19:36:37.937Z,97.40
2017-11-09T19:39:06.788Z,97.30
2017-11-09T19:41:36.410Z,97.50
2017-11-09T19:44:05.726Z,97.50
2017-11-09T19:46:34.583Z,97.50
2017-11-09T19:49:03.511Z,97.50
2017-11-09T19:51:32.380Z,97.40
2017-11-09T19:54:02.111Z,97.20
2017-11-09T19:56:30.968Z,97.10
2017-11-09T19:59:01.090Z,96.90
2017-11-09T20:01:30.204Z,96.80
2017-11-09T20:04:04.669Z,97.00
2017-11-09T20:06:33.536Z,96.60
2017-11-09T20:09:02.386Z,96.60
2017-11-09T20:11:31.415Z,96.40
2017-11-09T20:14:00.264Z,96.30
2017-11-09T20:16:29.115Z,96.10
2017-11-09T20:18:57.966Z,96.10
2017-11-09T20:21:27.702Z,95.80
2017-11-09T20:23:56.626Z,95.80
2017-11-09T20:26:25.564Z,95.80
2017-11-09T20:28:55.376Z,95.50
2017-11-09T20:31:25.028Z,95.70
2017-11-09T20:33:53.988Z,95.40
2017-11-09T20:36:23.773Z,95.40
2017-11-09T20:38:52.659Z,95.40
2017-11-09T20:41:21.341Z,95.40
2017-11-09T20:43:50.098Z,95.30
2017-11-09T20:46:19.069Z,95.20
2017-11-09T20:48:49.735Z,95.00
2017-11-09T20:51:18.673Z,95.00
2017-11-09T20:53:48.456Z,94.90
2017-11-09T20:56:17.358Z,94.90
2017-11-09T20:58:46.248Z,94.70
2017-11-09T21:01:15.163Z,94.60
2017-11-09T21:03:44.900Z,94.50
2017-11-09T21:06:13.987Z,94.50
2017-11-09T21:08:42.831Z,94.20
2017-11-09T21:11:11.705Z,94.10
2017-11-09T21:13:40.555Z,94.00
2017-11-09T21:16:09.884Z,93.80
2017-11-09T21:18:38.719Z,93.80
2017-11-09T21:21:07.563Z,93.60
2017-11-09T21:23:37.332Z,93.60
2017-11-09T21:26:06.203Z,93.50
2017-11-09T21:28:35.063Z,93.40
2017-11-09T21:31:03.917Z,93.30
2017-11-09T21:33:32.837Z,93.20
2017-11-09T21:36:01.704Z,93.20
2017-11-09T21:38:31.340Z,93.10
2017-11-09T21:41:01.144Z,93.10
2017-11-09T21:43:30.823Z,93.00
2017-11-09T21:45:59.681Z,93.00
2017-11-09T21:48:28.556Z,92.80
2017-11-09T21:50:57.741Z,92.90
2017-11-09T21:53:26.597Z,92.90
2017-11-09T21:55:56.232Z,92.60
2017-11-09T21:58:25.072Z,92.90
2017-11-09T22:00:53.954Z,92.80
2017-11-09T22:03:24.167Z,92.80
2017-11-09T22:05:53.079Z,92.60
2017-11-09T22:08:21.953Z,92.40
2017-11-09T22:10:50.820Z,92.50
2017-11-09T22:13:19.686Z,92.60
2017-11-09T22:15:48.543Z,92.60
2017-11-09T22:18:17.396Z,92.50
2017-11-09T22:20:47.213Z,92.80
2017-11-09T22:23:16.073Z,92.50
2017-11-09T22:25:45.715Z,92.30
2017-11-09T22:28:14.567Z,92.30
2017-11-09T22:30:44.714Z,92.60
2017-11-09T22:33:13.397Z,92.60
2017-11-09T22:35:42.269Z,92.60
2017-11-09T22:38:11.887Z,92.70
2017-11-09T22:40:41.612Z,92.60
2017-11-09T22:43:10.715Z,92.60
2017-11-09T22:45:39.567Z,92.70
2017-11-09T22:48:09.209Z,92.80
2017-11-09T22:50:38.067Z,92.80
2017-11-09T22:53:07.846Z,92.80
2017-11-09T22:55:36.724Z,92.80
2017-11-09T22:58:05.588Z,92.80
2017-11-09T23:00:34.447Z,92.80
2017-11-09T23:03:03.765Z,92.80
2017-11-09T23:05:33.404Z,92.70
2017-11-09T23:08:02.276Z,92.70
2017-11-09T23:10:30.698Z,92.70
2017-11-09T23:12:59.374Z,92.70
2017-11-09T23:15:28.904Z,92.60
2017-11-09T23:17:59.332Z,92.50
2017-11-09T23:20:28.213Z,92.30
2017-11-09T23:22:57.051Z,92.10
2017-11-09T23:25:26.667Z,91.90
2017-11-09T23:27:56.298Z,91.80
2017-11-09T23:30:25.928Z,91.70
2017-11-09T23:32:54.777Z,91.60
2017-11-09T23:35:24.403Z,91.30
2017-11-09T23:37:53.301Z,91.30
2017-11-09T23:40:22.149Z,91.30
2017-11-09T23:42:50.993Z,91.00
2017-11-09T23:45:19.858Z,90.90
2017-11-09T23:47:48.707Z,90.90
2017-11-09T23:50:17.571Z,90.60
2017-11-09T23:52:46.428Z,90.50
2017-11-09T23:55:16.092Z,90.30
2017-11-09T23:57:44.780Z,90.20
